Historique des mesures à Cassis (13260), France
Quotidien Résumé Fevrier 14, 2018 Unités:  Métrique    US   Métrique/US
« Précédent (Jour)
Suivant (Jour) »
Quotidien Hebdomadaire Mensuel Annuel Période au choix
  Maximum: Minimum: Moyenne:
Température: -17.8 °C -15.1 °C -13.8 °C
Point de rosée: -17.8 °C -20.6 °C -18.6 °C
Humidité: Humidity % 47 % 51 %
Vitesse du vent: 0 km/h 0 km/h 13.5 km/h
Rafales: 0 km/h - -
Vent:- - WSW
Pression: 0 hPa 34120.7 hPa -
Précipitations: 0 mm    
Historical Graphs
 
 
Mesures pour : Fevrier 14, 2018
Heure Temperature Point de rosée Pression Vent Vitesse du vent Rafales Humidité Pluie (par heure) Conditions
-17.8 °C -17.8 °C 0 hPa Calm     Humidity % 0 mm SoftwareType W/m2
00:12 -15.1 °C -20.6 °C 34154.6 hPa Calm     49 % 0 mm open2300-1.11 W/m2
01:12 -14.6 °C -19.9 °C 34144.4 hPa Calm     50 % 0 mm open2300-1.11 W/m2
02:12 -14.8 °C -19.7 °C 34144.4 hPa NW 5.1 km/h 5.1 km/h 53 % 0 mm open2300-1.11 W/m2
03:12 -14.5 °C -18.7 °C 34144.4 hPa NW 10.9 km/h 14 km/h 59 % 0 mm open2300-1.11 W/m2
04:12 -14.7 °C -18.3 °C 34120.7 hPa NW 23 km/h 23 km/h 63 % 0 mm open2300-1.11 W/m2
05:12 -14.8 °C -18.2 °C 34144.4 hPa WNW 41.7 km/h 41.7 km/h 65 % 0 mm open2300-1.11 W/m2
06:12 -14.6 °C -18.4 °C 34164.7 hPa NNW 13.2 km/h 41.2 km/h 61 % 0 mm open2300-1.11 W/m2
07:12 -14.7 °C -18.8 °C 34178.3 hPa North 12.7 km/h 33.2 km/h 59 % 0 mm open2300-1.11 W/m2
08:12 -14.5 °C -19.2 °C 34198.6 hPa NNW 37 km/h 49.2 km/h 55 % 0 mm open2300-1.11 W/m2
09:12 -14.1 °C -19.1 °C 34222.3 hPa NW 20.9 km/h 20.9 km/h 53 % 0 mm open2300-1.11 W/m2
11:12 -13.2 °C -18.5 °C 34269.7 hPa West 37 km/h 37 km/h 51 % 0 mm open2300-1.11 W/m2
12:12 -12.7 °C -18.4 °C 34269.7 hPa NNE 23.8 km/h 24.8 km/h 49 % 0 mm open2300-1.11 W/m2
13:12 -12.3 °C -17.8 °C 34256.2 hPa NW 27.7 km/h 27.7 km/h 50 % 0 mm open2300-1.11 W/m2
14:12 -12.2 °C -18 °C 34269.7 hPa North 5.6 km/h 12.7 km/h 48 % 0 mm open2300-1.11 W/m2
15:12 -11.8 °C -17.8 °C 34269.7 hPa Calm   23.8 km/h 47 % 0 mm open2300-1.11 W/m2
16:12 -12.1 °C -17.9 °C 34269.7 hPa WNW 30.7 km/h 31.9 km/h 48 % 0 mm open2300-1.11 W/m2
17:12 -12.3 °C -18 °C 34279.9 hPa WNW 16.3 km/h 19.6 km/h 49 % 0 mm open2300-1.11 W/m2
18:12 -12.7 °C -18.1 °C 34293.4 hPa Calm     51 % 0 mm open2300-1.11 W/m2
19:12 -13.1 °C -18.4 °C 34313.7 hPa Calm     51 % 0 mm open2300-1.11 W/m2
20:12 -13.2 °C -18.4 °C 34327.3 hPa West 9.3 km/h 9.3 km/h 52 % 0 mm open2300-1.11 W/m2
21:12 -13.4 °C -18.1 °C 34337.4 hPa Calm   3.4 km/h 55 % 0 mm open2300-1.11 W/m2
22:12 -13.6 °C -18.3 °C 34361.1 hPa NW 4.2 km/h 7.6 km/h 55 % 0 mm open2300-1.11 W/m2
23:12 -13.8 °C -18.5 °C 34347.6 hPa NW 4.7 km/h 8.9 km/h 55 % 0 mm open2300-1.11 W/m2
Observations météo à CASSIS
WU-History script by Weather Underground - 1 mb